sensor_id;sensor_type;location;lat;lon;timestamp;temperature;humidity
44223;DHT22;29895;48.804;9.386;2023-11-19T00:00:36;8.20;99.90
44223;DHT22;29895;48.804;9.386;2023-11-19T00:03:02;8.20;99.90
44223;DHT22;29895;48.804;9.386;2023-11-19T00:05:27;8.20;99.90
44223;DHT22;29895;48.804;9.386;2023-11-19T00:07:54;8.30;99.90
44223;DHT22;29895;48.804;9.386;2023-11-19T00:10:20;8.30;99.90
44223;DHT22;29895;48.804;9.386;2023-11-19T00:12:47;8.30;99.90
44223;DHT22;29895;48.804;9.386;2023-11-19T00:15:14;8.40;99.90
44223;DHT22;29895;48.804;9.386;2023-11-19T00:17:46;8.40;99.90
44223;DHT22;29895;48.804;9.386;2023-11-19T00:20:17;8.40;99.90
44223;DHT22;29895;48.804;9.386;2023-11-19T00:22:44;8.40;99.90
44223;DHT22;29895;48.804;9.386;2023-11-19T00:25:13;8.40;99.90
44223;DHT22;29895;48.804;9.386;2023-11-19T00:27:39;8.40;99.90
44223;DHT22;29895;48.804;9.386;2023-11-19T00:30:05;8.50;99.90
44223;DHT22;29895;48.804;9.386;2023-11-19T00:32:34;8.50;99.90
44223;DHT22;29895;48.804;9.386;2023-11-19T00:35:01;8.60;99.90
44223;DHT22;29895;48.804;9.386;2023-11-19T00:37:28;8.60;99.90
44223;DHT22;29895;48.804;9.386;2023-11-19T00:39:54;8.60;99.90
44223;DHT22;29895;48.804;9.386;2023-11-19T00:42:21;8.70;99.90
44223;DHT22;29895;48.804;9.386;2023-11-19T00:44:47;8.70;99.90
44223;DHT22;29895;48.804;9.386;2023-11-19T00:47:13;8.70;99.90
44223;DHT22;29895;48.804;9.386;2023-11-19T00:49:39;8.70;99.90
44223;DHT22;29895;48.804;9.386;2023-11-19T00:52:05;8.70;99.90
44223;DHT22;29895;48.804;9.386;2023-11-19T00:54:32;8.80;99.90
44223;DHT22;29895;48.804;9.386;2023-11-19T00:56:57;8.90;99.90
44223;DHT22;29895;48.804;9.386;2023-11-19T00:59:23;9.00;99.90
44223;DHT22;29895;48.804;9.386;2023-11-19T01:01:49;9.00;99.90
44223;DHT22;29895;48.804;9.386;2023-11-19T01:04:16;9.10;99.90
44223;DHT22;29895;48.804;9.386;2023-11-19T01:06:42;9.10;99.90
44223;DHT22;29895;48.804;9.386;2023-11-19T01:09:08;9.10;99.90
44223;DHT22;29895;48.804;9.386;2023-11-19T01:11:34;9.20;99.90
44223;DHT22;29895;48.804;9.386;2023-11-19T01:14:00;9.20;99.90
44223;DHT22;29895;48.804;9.386;2023-11-19T01:16:26;9.10;99.90
44223;DHT22;29895;48.804;9.386;2023-11-19T01:18:51;9.10;99.90
44223;DHT22;29895;48.804;9.386;2023-11-19T01:21:18;9.10;99.90
44223;DHT22;29895;48.804;9.386;2023-11-19T01:23:43;9.10;99.90
44223;DHT22;29895;48.804;9.386;2023-11-19T01:26:10;9.10;99.90
44223;DHT22;29895;48.804;9.386;2023-11-19T01:28:36;9.10;99.90
44223;DHT22;29895;48.804;9.386;2023-11-19T01:31:02;9.10;99.90
44223;DHT22;29895;48.804;9.386;2023-11-19T01:33:29;9.10;99.90
44223;DHT22;29895;48.804;9.386;2023-11-19T01:35:55;9.10;99.90
44223;DHT22;29895;48.804;9.386;2023-11-19T01:38:21;9.10;99.90
44223;DHT22;29895;48.804;9.386;2023-11-19T01:40:47;9.10;99.90
44223;DHT22;29895;48.804;9.386;2023-11-19T01:43:22;9.00;99.90
44223;DHT22;29895;48.804;9.386;2023-11-19T01:45:56;9.00;99.90
44223;DHT22;29895;48.804;9.386;2023-11-19T01:48:22;9.00;99.90
44223;DHT22;29895;48.804;9.386;2023-11-19T01:50:48;9.10;99.90
44223;DHT22;29895;48.804;9.386;2023-11-19T01:53:13;9.10;99.90
44223;DHT22;29895;48.804;9.386;2023-11-19T01:55:39;9.10;99.90
44223;DHT22;29895;48.804;9.386;2023-11-19T01:58:07;9.10;99.90
44223;DHT22;29895;48.804;9.386;2023-11-19T02:00:33;9.10;99.90
44223;DHT22;29895;48.804;9.386;2023-11-19T02:02:58;9.10;99.90
44223;DHT22;29895;48.804;9.386;2023-11-19T02:05:25;9.10;99.90
44223;DHT22;29895;48.804;9.386;2023-11-19T02:07:50;9.10;99.90
44223;DHT22;29895;48.804;9.386;2023-11-19T02:10:17;9.10;99.90
44223;DHT22;29895;48.804;9.386;2023-11-19T02:12:44;9.10;99.90
44223;DHT22;29895;48.804;9.386;2023-11-19T02:15:11;9.10;99.90
44223;DHT22;29895;48.804;9.386;2023-11-19T02:17:37;9.10;99.90
44223;DHT22;29895;48.804;9.386;2023-11-19T02:20:04;9.10;99.90
44223;DHT22;29895;48.804;9.386;2023-11-19T02:22:35;9.10;99.90
44223;DHT22;29895;48.804;9.386;2023-11-19T02:25:04;9.20;99.90
44223;DHT22;29895;48.804;9.386;2023-11-19T02:30:04;9.10;99.90
44223;DHT22;29895;48.804;9.386;2023-11-19T02:32:34;9.10;99.90
44223;DHT22;29895;48.804;9.386;2023-11-19T02:35:01;9.10;99.90
44223;DHT22;29895;48.804;9.386;2023-11-19T02:37:27;9.10;99.90
44223;DHT22;29895;48.804;9.386;2023-11-19T02:39:53;9.10;99.90
44223;DHT22;29895;48.804;9.386;2023-11-19T02:42:19;9.00;99.90
44223;DHT22;29895;48.804;9.386;2023-11-19T02:44:45;9.00;99.90
44223;DHT22;29895;48.804;9.386;2023-11-19T02:47:11;9.00;99.90
44223;DHT22;29895;48.804;9.386;2023-11-19T02:49:37;9.00;99.90
44223;DHT22;29895;48.804;9.386;2023-11-19T02:52:03;9.00;99.90
44223;DHT22;29895;48.804;9.386;2023-11-19T02:54:31;9.00;99.90
44223;DHT22;29895;48.804;9.386;2023-11-19T02:57:00;9.00;99.90
44223;DHT22;29895;48.804;9.386;2023-11-19T02:59:27;9.00;99.90
44223;DHT22;29895;48.804;9.386;2023-11-19T03:01:54;9.00;99.90
44223;DHT22;29895;48.804;9.386;2023-11-19T03:04:20;9.10;99.90
44223;DHT22;29895;48.804;9.386;2023-11-19T03:06:46;9.00;99.90
44223;DHT22;29895;48.804;9.386;2023-11-19T03:09:12;9.10;99.90
44223;DHT22;29895;48.804;9.386;2023-11-19T03:11:38;9.10;99.90
44223;DHT22;29895;48.804;9.386;2023-11-19T03:14:04;9.10;99.90
44223;DHT22;29895;48.804;9.386;2023-11-19T03:16:30;9.10;99.90
44223;DHT22;29895;48.804;9.386;2023-11-19T03:18:55;9.10;99.90
44223;DHT22;29895;48.804;9.386;2023-11-19T03:21:31;9.10;99.90
44223;DHT22;29895;48.804;9.386;2023-11-19T03:24:00;9.10;99.90
44223;DHT22;29895;48.804;9.386;2023-11-19T03:26:27;9.10;99.90
44223;DHT22;29895;48.804;9.386;2023-11-19T03:28:53;9.10;99.90
44223;DHT22;29895;48.804;9.386;2023-11-19T03:31:19;9.10;99.90
44223;DHT22;29895;48.804;9.386;2023-11-19T03:33:45;9.10;99.90
44223;DHT22;29895;48.804;9.386;2023-11-19T03:36:12;9.10;99.90
44223;DHT22;29895;48.804;9.386;2023-11-19T03:38:38;9.10;99.90
44223;DHT22;29895;48.804;9.386;2023-11-19T03:41:13;9.10;99.90
44223;DHT22;29895;48.804;9.386;2023-11-19T03:43:40;9.20;99.90
44223;DHT22;29895;48.804;9.386;2023-11-19T03:46:26;9.20;99.90
44223;DHT22;29895;48.804;9.386;2023-11-19T03:48:52;9.20;99.90
44223;DHT22;29895;48.804;9.386;2023-11-19T03:51:18;9.20;99.90
44223;DHT22;29895;48.804;9.386;2023-11-19T03:53:47;9.20;99.90
44223;DHT22;29895;48.804;9.386;2023-11-19T03:56:12;9.20;99.90
44223;DHT22;29895;48.804;9.386;2023-11-19T03:58:39;9.20;99.90
44223;DHT22;29895;48.804;9.386;2023-11-19T04:01:05;9.20;99.90
44223;DHT22;29895;48.804;9.386;2023-11-19T04:03:31;9.20;99.90
44223;DHT22;29895;48.804;9.386;2023-11-19T04:05:57;9.20;99.90
44223;DHT22;29895;48.804;9.386;2023-11-19T04:08:22;9.20;99.90
44223;DHT22;29895;48.804;9.386;2023-11-19T04:10:48;9.30;99.90
44223;DHT22;29895;48.804;9.386;2023-11-19T04:13:14;9.30;99.90
44223;DHT22;29895;48.804;9.386;2023-11-19T04:15:40;9.30;99.90
44223;DHT22;29895;48.804;9.386;2023-11-19T04:18:05;9.30;99.90
44223;DHT22;29895;48.804;9.386;2023-11-19T04:20:31;9.40;99.90
44223;DHT22;29895;48.804;9.386;2023-11-19T04:22:57;9.40;99.90
44223;DHT22;29895;48.804;9.386;2023-11-19T04:25:23;9.40;99.90
44223;DHT22;29895;48.804;9.386;2023-11-19T04:27:51;9.50;99.90
44223;DHT22;29895;48.804;9.386;2023-11-19T04:30:17;9.50;99.90
44223;DHT22;29895;48.804;9.386;2023-11-19T04:32:43;9.40;99.90
44223;DHT22;29895;48.804;9.386;2023-11-19T04:35:09;9.50;99.90
44223;DHT22;29895;48.804;9.386;2023-11-19T04:37:35;9.40;99.90
44223;DHT22;29895;48.804;9.386;2023-11-19T04:40:01;9.50;99.90
44223;DHT22;29895;48.804;9.386;2023-11-19T04:42:27;9.50;99.90
44223;DHT22;29895;48.804;9.386;2023-11-19T04:44:52;9.50;99.90
44223;DHT22;29895;48.804;9.386;2023-11-19T04:47:18;9.50;99.90
44223;DHT22;29895;48.804;9.386;2023-11-19T04:49:43;9.50;99.90
44223;DHT22;29895;48.804;9.386;2023-11-19T04:52:09;9.60;99.90
44223;DHT22;29895;48.804;9.386;2023-11-19T04:54:35;9.90;99.90
44223;DHT22;29895;48.804;9.386;2023-11-19T04:57:00;10.00;99.90
44223;DHT22;29895;48.804;9.386;2023-11-19T04:59:26;10.20;99.90
44223;DHT22;29895;48.804;9.386;2023-11-19T05:01:53;10.30;99.90
44223;DHT22;29895;48.804;9.386;2023-11-19T05:04:18;10.40;99.90
44223;DHT22;29895;48.804;9.386;2023-11-19T05:06:44;10.60;99.90
44223;DHT22;29895;48.804;9.386;2023-11-19T05:09:10;10.70;99.90
44223;DHT22;29895;48.804;9.386;2023-11-19T05:11:38;10.80;99.90
44223;DHT22;29895;48.804;9.386;2023-11-19T05:14:04;10.90;99.90
44223;DHT22;29895;48.804;9.386;2023-11-19T05:16:30;11.00;99.90
44223;DHT22;29895;48.804;9.386;2023-11-19T05:18:56;11.10;99.90
44223;DHT22;29895;48.804;9.386;2023-11-19T05:21:22;11.10;99.90
44223;DHT22;29895;48.804;9.386;2023-11-19T05:23:47;11.10;99.90
44223;DHT22;29895;48.804;9.386;2023-11-19T05:26:20;11.10;99.90
44223;DHT22;29895;48.804;9.386;2023-11-19T05:28:46;11.20;99.90
44223;DHT22;29895;48.804;9.386;2023-11-19T05:31:12;11.20;99.90
44223;DHT22;29895;48.804;9.386;2023-11-19T05:33:41;11.30;99.90
44223;DHT22;29895;48.804;9.386;2023-11-19T05:36:06;11.30;99.90
44223;DHT22;29895;48.804;9.386;2023-11-19T05:38:34;11.30;99.90
44223;DHT22;29895;48.804;9.386;2023-11-19T05:41:00;11.40;99.90
44223;DHT22;29895;48.804;9.386;2023-11-19T05:43:25;11.40;99.90
44223;DHT22;29895;48.804;9.386;2023-11-19T05:45:51;11.40;99.90
44223;DHT22;29895;48.804;9.386;2023-11-19T05:48:17;11.40;99.90
44223;DHT22;29895;48.804;9.386;2023-11-19T05:50:43;11.40;99.90
44223;DHT22;29895;48.804;9.386;2023-11-19T05:53:09;11.50;99.90
44223;DHT22;29895;48.804;9.386;2023-11-19T05:55:36;11.50;99.90
44223;DHT22;29895;48.804;9.386;2023-11-19T05:58:10;11.50;99.90
44223;DHT22;29895;48.804;9.386;2023-11-19T06:00:38;11.50;99.90
44223;DHT22;29895;48.804;9.386;2023-11-19T06:03:04;11.50;99.90
44223;DHT22;29895;48.804;9.386;2023-11-19T06:05:30;11.50;99.90
44223;DHT22;29895;48.804;9.386;2023-11-19T06:07:55;11.60;99.90
44223;DHT22;29895;48.804;9.386;2023-11-19T06:10:23;11.50;99.90
44223;DHT22;29895;48.804;9.386;2023-11-19T06:12:54;11.60;99.90
44223;DHT22;29895;48.804;9.386;2023-11-19T06:15:22;11.60;99.90
44223;DHT22;29895;48.804;9.386;2023-11-19T06:17:48;11.60;99.90
44223;DHT22;29895;48.804;9.386;2023-11-19T06:20:13;11.60;99.90
44223;DHT22;29895;48.804;9.386;2023-11-19T06:22:39;11.70;99.90
44223;DHT22;29895;48.804;9.386;2023-11-19T06:25:08;11.70;99.90
44223;DHT22;29895;48.804;9.386;2023-11-19T06:27:33;11.70;99.90
44223;DHT22;29895;48.804;9.386;2023-11-19T06:30:00;11.70;99.90
44223;DHT22;29895;48.804;9.386;2023-11-19T06:32:26;11.70;99.90
44223;DHT22;29895;48.804;9.386;2023-11-19T06:34:51;11.60;99.90
44223;DHT22;29895;48.804;9.386;2023-11-19T06:37:17;11.70;99.90
44223;DHT22;29895;48.804;9.386;2023-11-19T06:39:43;11.70;99.90
44223;DHT22;29895;48.804;9.386;2023-11-19T06:42:08;11.80;99.90
44223;DHT22;29895;48.804;9.386;2023-11-19T06:44:34;11.80;99.90
44223;DHT22;29895;48.804;9.386;2023-11-19T06:46:59;11.80;99.90
44223;DHT22;29895;48.804;9.386;2023-11-19T06:49:25;11.80;99.90
44223;DHT22;29895;48.804;9.386;2023-11-19T06:51:51;11.80;99.90
44223;DHT22;29895;48.804;9.386;2023-11-19T06:54:17;11.90;99.90
44223;DHT22;29895;48.804;9.386;2023-11-19T06:56:42;11.90;99.90
44223;DHT22;29895;48.804;9.386;2023-11-19T06:59:09;11.90;99.90
44223;DHT22;29895;48.804;9.386;2023-11-19T07:01:36;11.90;99.90
44223;DHT22;29895;48.804;9.386;2023-11-19T07:04:02;11.80;99.90
44223;DHT22;29895;48.804;9.386;2023-11-19T07:06:35;11.70;99.90
44223;DHT22;29895;48.804;9.386;2023-11-19T07:09:02;11.80;99.90
44223;DHT22;29895;48.804;9.386;2023-11-19T07:11:38;11.80;99.90
44223;DHT22;29895;48.804;9.386;2023-11-19T07:14:05;11.80;99.90
44223;DHT22;29895;48.804;9.386;2023-11-19T07:16:32;11.90;99.90
44223;DHT22;29895;48.804;9.386;2023-11-19T07:19:03;11.90;99.90
44223;DHT22;29895;48.804;9.386;2023-11-19T07:21:29;11.90;99.90
44223;DHT22;29895;48.804;9.386;2023-11-19T07:23:55;11.90;99.90
44223;DHT22;29895;48.804;9.386;2023-11-19T07:26:21;11.90;99.90
44223;DHT22;29895;48.804;9.386;2023-11-19T07:28:47;11.90;99.90
44223;DHT22;29895;48.804;9.386;2023-11-19T07:31:13;11.90;99.90
44223;DHT22;29895;48.804;9.386;2023-11-19T07:33:39;12.00;99.90
44223;DHT22;29895;48.804;9.386;2023-11-19T07:36:05;12.00;99.90
44223;DHT22;29895;48.804;9.386;2023-11-19T07:38:31;12.00;99.90
44223;DHT22;29895;48.804;9.386;2023-11-19T07:40:57;12.00;99.90
44223;DHT22;29895;48.804;9.386;2023-11-19T07:43:22;12.00;99.90
44223;DHT22;29895;48.804;9.386;2023-11-19T07:45:48;12.10;99.90
44223;DHT22;29895;48.804;9.386;2023-11-19T07:48:14;12.10;99.90
44223;DHT22;29895;48.804;9.386;2023-11-19T07:50:40;12.10;99.90
44223;DHT22;29895;48.804;9.386;2023-11-19T07:53:07;12.10;99.90
44223;DHT22;29895;48.804;9.386;2023-11-19T07:55:33;12.10;99.90
44223;DHT22;29895;48.804;9.386;2023-11-19T07:57:59;12.10;99.90
44223;DHT22;29895;48.804;9.386;2023-11-19T08:00:24;12.20;99.90
44223;DHT22;29895;48.804;9.386;2023-11-19T08:02:50;12.10;99.90
44223;DHT22;29895;48.804;9.386;2023-11-19T08:05:15;12.10;99.90
44223;DHT22;29895;48.804;9.386;2023-11-19T08:07:41;12.10;99.90
44223;DHT22;29895;48.804;9.386;2023-11-19T08:10:07;12.20;99.90
44223;DHT22;29895;48.804;9.386;2023-11-19T08:12:35;12.20;99.90
44223;DHT22;29895;48.804;9.386;2023-11-19T08:15:02;12.30;99.90
44223;DHT22;29895;48.804;9.386;2023-11-19T08:17:28;12.40;99.90
44223;DHT22;29895;48.804;9.386;2023-11-19T08:19:53;12.40;99.90
44223;DHT22;29895;48.804;9.386;2023-11-19T08:22:19;12.40;99.90
44223;DHT22;29895;48.804;9.386;2023-11-19T08:24:45;12.40;99.90
44223;DHT22;29895;48.804;9.386;2023-11-19T08:27:10;12.40;99.90
44223;DHT22;29895;48.804;9.386;2023-11-19T08:29:36;12.50;99.90
44223;DHT22;29895;48.804;9.386;2023-11-19T08:32:02;12.50;99.90
44223;DHT22;29895;48.804;9.386;2023-11-19T08:34:29;12.50;99.90
44223;DHT22;29895;48.804;9.386;2023-11-19T08:36:55;12.60;99.90
44223;DHT22;29895;48.804;9.386;2023-11-19T08:39:21;12.60;99.90
44223;DHT22;29895;48.804;9.386;2023-11-19T08:41:50;12.80;99.90
44223;DHT22;29895;48.804;9.386;2023-11-19T08:44:16;12.90;99.90
44223;DHT22;29895;48.804;9.386;2023-11-19T08:46:51;13.00;99.90
44223;DHT22;29895;48.804;9.386;2023-11-19T08:49:17;13.00;99.90
44223;DHT22;29895;48.804;9.386;2023-11-19T08:51:43;13.00;99.90
44223;DHT22;29895;48.804;9.386;2023-11-19T08:54:09;13.10;99.90
44223;DHT22;29895;48.804;9.386;2023-11-19T08:56:36;13.20;99.90
44223;DHT22;29895;48.804;9.386;2023-11-19T08:59:01;13.20;99.90
44223;DHT22;29895;48.804;9.386;2023-11-19T09:01:27;13.20;99.90
44223;DHT22;29895;48.804;9.386;2023-11-19T09:03:54;13.20;99.90
44223;DHT22;29895;48.804;9.386;2023-11-19T09:06:19;13.20;99.90
44223;DHT22;29895;48.804;9.386;2023-11-19T09:08:45;13.30;99.90
44223;DHT22;29895;48.804;9.386;2023-11-19T09:11:10;13.30;99.90
44223;DHT22;29895;48.804;9.386;2023-11-19T09:13:37;13.40;99.90
44223;DHT22;29895;48.804;9.386;2023-11-19T09:16:02;13.40;99.90
44223;DHT22;29895;48.804;9.386;2023-11-19T09:18:31;13.50;99.90
44223;DHT22;29895;48.804;9.386;2023-11-19T09:20:58;13.80;99.90
44223;DHT22;29895;48.804;9.386;2023-11-19T09:23:23;14.00;99.90
44223;DHT22;29895;48.804;9.386;2023-11-19T09:25:54;14.20;99.90
44223;DHT22;29895;48.804;9.386;2023-11-19T09:28:20;14.10;99.90
44223;DHT22;29895;48.804;9.386;2023-11-19T09:30:46;14.00;99.90
44223;DHT22;29895;48.804;9.386;2023-11-19T09:33:11;13.90;99.90
44223;DHT22;29895;48.804;9.386;2023-11-19T09:35:37;13.80;99.90
44223;DHT22;29895;48.804;9.386;2023-11-19T09:38:03;13.80;99.90
44223;DHT22;29895;48.804;9.386;2023-11-19T09:40:30;13.70;99.90
44223;DHT22;29895;48.804;9.386;2023-11-19T09:42:57;13.60;99.90
44223;DHT22;29895;48.804;9.386;2023-11-19T09:45:27;13.60;99.90
44223;DHT22;29895;48.804;9.386;2023-11-19T09:47:53;13.50;99.90
44223;DHT22;29895;48.804;9.386;2023-11-19T09:50:20;13.50;99.90
44223;DHT22;29895;48.804;9.386;2023-11-19T09:52:47;13.60;99.90
44223;DHT22;29895;48.804;9.386;2023-11-19T09:55:13;13.60;99.90
44223;DHT22;29895;48.804;9.386;2023-11-19T09:57:40;13.70;99.90
44223;DHT22;29895;48.804;9.386;2023-11-19T10:00:07;13.80;99.90
44223;DHT22;29895;48.804;9.386;2023-11-19T10:02:36;14.10;99.90
44223;DHT22;29895;48.804;9.386;2023-11-19T10:05:05;14.30;99.90
44223;DHT22;29895;48.804;9.386;2023-11-19T10:07:35;14.40;99.90
44223;DHT22;29895;48.804;9.386;2023-11-19T10:10:01;14.50;99.90
44223;DHT22;29895;48.804;9.386;2023-11-19T10:12:29;14.70;99.90
44223;DHT22;29895;48.804;9.386;2023-11-19T10:14:59;14.70;99.90
44223;DHT22;29895;48.804;9.386;2023-11-19T10:17:43;14.70;99.90
44223;DHT22;29895;48.804;9.386;2023-11-19T10:20:09;14.80;99.90
44223;DHT22;29895;48.804;9.386;2023-11-19T10:22:37;15.10;99.90
44223;DHT22;29895;48.804;9.386;2023-11-19T10:25:04;15.40;99.90
44223;DHT22;29895;48.804;9.386;2023-11-19T10:27:29;15.40;99.90
44223;DHT22;29895;48.804;9.386;2023-11-19T10:29:59;15.50;99.90
44223;DHT22;29895;48.804;9.386;2023-11-19T10:32:25;15.50;99.90
44223;DHT22;29895;48.804;9.386;2023-11-19T10:34:51;15.50;99.90
44223;DHT22;29895;48.804;9.386;2023-11-19T10:37:29;15.50;99.90
44223;DHT22;29895;48.804;9.386;2023-11-19T10:39:58;15.50;99.90
44223;DHT22;29895;48.804;9.386;2023-11-19T10:42:23;15.60;99.90
44223;DHT22;29895;48.804;9.386;2023-11-19T10:44:49;15.60;99.90
44223;DHT22;29895;48.804;9.386;2023-11-19T10:47:15;15.60;99.90
44223;DHT22;29895;48.804;9.386;2023-11-19T10:49:44;15.60;99.90
44223;DHT22;29895;48.804;9.386;2023-11-19T10:52:12;15.60;99.90
44223;DHT22;29895;48.804;9.386;2023-11-19T10:54:44;15.50;99.90
44223;DHT22;29895;48.804;9.386;2023-11-19T10:57:12;15.60;99.90
44223;DHT22;29895;48.804;9.386;2023-11-19T10:59:42;15.80;99.90
44223;DHT22;29895;48.804;9.386;2023-11-19T11:02:10;15.90;99.90
44223;DHT22;29895;48.804;9.386;2023-11-19T11:04:40;16.20;99.90
44223;DHT22;29895;48.804;9.386;2023-11-19T11:07:07;16.40;99.90
44223;DHT22;29895;48.804;9.386;2023-11-19T11:09:34;16.40;99.90
44223;DHT22;29895;48.804;9.386;2023-11-19T11:12:01;16.30;99.90
44223;DHT22;29895;48.804;9.386;2023-11-19T11:14:27;16.20;99.90
44223;DHT22;29895;48.804;9.386;2023-11-19T11:16:53;16.10;99.90
44223;DHT22;29895;48.804;9.386;2023-11-19T11:19:20;16.10;99.90
44223;DHT22;29895;48.804;9.386;2023-11-19T11:21:52;16.10;99.90
44223;DHT22;29895;48.804;9.386;2023-11-19T11:30:20;15.90;99.90
44223;DHT22;29895;48.804;9.386;2023-11-19T11:33:15;15.90;99.90
44223;DHT22;29895;48.804;9.386;2023-11-19T11:36:19;15.90;99.90
44223;DHT22;29895;48.804;9.386;2023-11-19T11:38:48;16.00;99.90
44223;DHT22;29895;48.804;9.386;2023-11-19T11:41:20;15.90;99.90
44223;DHT22;29895;48.804;9.386;2023-11-19T11:43:50;16.00;99.90
44223;DHT22;29895;48.804;9.386;2023-11-19T11:49:08;15.90;99.90
44223;DHT22;29895;48.804;9.386;2023-11-19T11:54:11;16.00;99.90
44223;DHT22;29895;48.804;9.386;2023-11-19T11:56:37;15.90;99.90
44223;DHT22;29895;48.804;9.386;2023-11-19T11:59:19;15.70;99.90
44223;DHT22;29895;48.804;9.386;2023-11-19T12:01:59;15.70;99.90
44223;DHT22;29895;48.804;9.386;2023-11-19T12:04:28;15.50;99.90
44223;DHT22;29895;48.804;9.386;2023-11-19T12:07:13;15.40;99.90
44223;DHT22;29895;48.804;9.386;2023-11-19T12:09:42;15.50;99.90
44223;DHT22;29895;48.804;9.386;2023-11-19T12:12:26;15.70;99.90
44223;DHT22;29895;48.804;9.386;2023-11-19T12:15:10;15.80;99.90
44223;DHT22;29895;48.804;9.386;2023-11-19T12:17:37;15.90;99.90
44223;DHT22;29895;48.804;9.386;2023-11-19T12:20:06;16.00;99.90
44223;DHT22;29895;48.804;9.386;2023-11-19T12:22:39;16.20;99.90
44223;DHT22;29895;48.804;9.386;2023-11-19T12:25:06;16.30;99.90
44223;DHT22;29895;48.804;9.386;2023-11-19T12:27:33;16.30;99.90
44223;DHT22;29895;48.804;9.386;2023-11-19T12:30:00;16.30;99.90
44223;DHT22;29895;48.804;9.386;2023-11-19T12:32:25;16.20;99.90
44223;DHT22;29895;48.804;9.386;2023-11-19T12:34:51;16.20;99.90
44223;DHT22;29895;48.804;9.386;2023-11-19T12:37:17;16.10;99.90
44223;DHT22;29895;48.804;9.386;2023-11-19T12:39:42;16.20;99.90
44223;DHT22;29895;48.804;9.386;2023-11-19T12:42:09;16.20;99.90
44223;DHT22;29895;48.804;9.386;2023-11-19T12:44:34;16.20;99.90
44223;DHT22;29895;48.804;9.386;2023-11-19T12:47:05;16.30;99.90
44223;DHT22;29895;48.804;9.386;2023-11-19T12:49:32;16.40;99.90
44223;DHT22;29895;48.804;9.386;2023-11-19T12:51:58;16.30;99.90
44223;DHT22;29895;48.804;9.386;2023-11-19T12:54:37;16.30;99.90
44223;DHT22;29895;48.804;9.386;2023-11-19T12:57:04;16.30;99.90
44223;DHT22;29895;48.804;9.386;2023-11-19T12:59:30;16.20;99.90
44223;DHT22;29895;48.804;9.386;2023-11-19T13:04:32;16.20;99.90
44223;DHT22;29895;48.804;9.386;2023-11-19T13:06:58;16.20;99.90
44223;DHT22;29895;48.804;9.386;2023-11-19T13:09:25;16.20;99.90
44223;DHT22;29895;48.804;9.386;2023-11-19T13:11:51;16.20;99.90
44223;DHT22;29895;48.804;9.386;2023-11-19T13:14:18;16.30;99.90
44223;DHT22;29895;48.804;9.386;2023-11-19T13:16:44;16.30;99.90
44223;DHT22;29895;48.804;9.386;2023-11-19T13:19:14;16.30;99.90
44223;DHT22;29895;48.804;9.386;2023-11-19T13:21:40;16.30;99.90
44223;DHT22;29895;48.804;9.386;2023-11-19T13:24:06;16.40;99.90
44223;DHT22;29895;48.804;9.386;2023-11-19T13:26:32;16.40;99.90
44223;DHT22;29895;48.804;9.386;2023-11-19T13:28:57;16.20;99.90
44223;DHT22;29895;48.804;9.386;2023-11-19T13:31:23;16.30;99.90
44223;DHT22;29895;48.804;9.386;2023-11-19T13:33:49;16.20;99.90
44223;DHT22;29895;48.804;9.386;2023-11-19T13:36:17;16.20;99.90
44223;DHT22;29895;48.804;9.386;2023-11-19T13:38:43;16.20;99.90
44223;DHT22;29895;48.804;9.386;2023-11-19T13:41:12;16.10;99.90
44223;DHT22;29895;48.804;9.386;2023-11-19T13:43:39;16.10;99.90
44223;DHT22;29895;48.804;9.386;2023-11-19T13:46:05;16.10;99.90
44223;DHT22;29895;48.804;9.386;2023-11-19T13:48:31;16.10;99.90
44223;DHT22;29895;48.804;9.386;2023-11-19T13:50:57;16.00;99.90
44223;DHT22;29895;48.804;9.386;2023-11-19T13:53:23;16.00;99.90
44223;DHT22;29895;48.804;9.386;2023-11-19T13:55:49;15.90;99.90
44223;DHT22;29895;48.804;9.386;2023-11-19T13:58:15;15.80;99.90
44223;DHT22;29895;48.804;9.386;2023-11-19T14:00:42;15.80;99.90
44223;DHT22;29895;48.804;9.386;2023-11-19T14:03:09;15.80;99.90
44223;DHT22;29895;48.804;9.386;2023-11-19T14:05:36;15.80;99.90
44223;DHT22;29895;48.804;9.386;2023-11-19T14:08:02;15.80;99.90
44223;DHT22;29895;48.804;9.386;2023-11-19T14:10:29;15.80;99.90
44223;DHT22;29895;48.804;9.386;2023-11-19T14:12:54;15.70;99.90
44223;DHT22;29895;48.804;9.386;2023-11-19T14:15:20;15.60;99.90
44223;DHT22;29895;48.804;9.386;2023-11-19T14:17:45;15.50;99.90
44223;DHT22;29895;48.804;9.386;2023-11-19T14:20:11;15.30;99.90
44223;DHT22;29895;48.804;9.386;2023-11-19T14:22:42;15.10;99.90
44223;DHT22;29895;48.804;9.386;2023-11-19T14:25:09;15.10;99.90
44223;DHT22;29895;48.804;9.386;2023-11-19T14:27:38;15.00;99.90
44223;DHT22;29895;48.804;9.386;2023-11-19T14:30:05;14.90;99.90
44223;DHT22;29895;48.804;9.386;2023-11-19T14:32:32;14.70;99.90
44223;DHT22;29895;48.804;9.386;2023-11-19T14:34:57;14.70;99.90
44223;DHT22;29895;48.804;9.386;2023-11-19T14:37:23;14.60;99.90
44223;DHT22;29895;48.804;9.386;2023-11-19T14:39:49;14.50;99.90
44223;DHT22;29895;48.804;9.386;2023-11-19T14:42:16;14.50;99.90
44223;DHT22;29895;48.804;9.386;2023-11-19T14:44:42;14.50;99.90
44223;DHT22;29895;48.804;9.386;2023-11-19T14:47:08;14.50;99.90
44223;DHT22;29895;48.804;9.386;2023-11-19T14:49:36;14.40;99.90
44223;DHT22;29895;48.804;9.386;2023-11-19T14:52:03;14.40;99.90
44223;DHT22;29895;48.804;9.386;2023-11-19T14:54:29;14.30;99.90
44223;DHT22;29895;48.804;9.386;2023-11-19T14:56:56;14.20;99.90
44223;DHT22;29895;48.804;9.386;2023-11-19T14:59:22;14.10;99.90
44223;DHT22;29895;48.804;9.386;2023-11-19T15:01:47;14.00;99.90
44223;DHT22;29895;48.804;9.386;2023-11-19T15:04:13;13.90;99.90
44223;DHT22;29895;48.804;9.386;2023-11-19T15:06:39;13.80;99.90
44223;DHT22;29895;48.804;9.386;2023-11-19T15:09:04;13.60;99.90
44223;DHT22;29895;48.804;9.386;2023-11-19T15:11:33;13.50;99.90
44223;DHT22;29895;48.804;9.386;2023-11-19T15:13:58;13.50;99.90
44223;DHT22;29895;48.804;9.386;2023-11-19T15:16:25;13.50;99.90
44223;DHT22;29895;48.804;9.386;2023-11-19T15:18:58;13.50;99.90
44223;DHT22;29895;48.804;9.386;2023-11-19T15:21:26;13.40;99.90
44223;DHT22;29895;48.804;9.386;2023-11-19T15:23:52;13.40;99.90
44223;DHT22;29895;48.804;9.386;2023-11-19T15:26:18;13.40;99.90
44223;DHT22;29895;48.804;9.386;2023-11-19T15:28:44;13.30;99.90
44223;DHT22;29895;48.804;9.386;2023-11-19T15:33:46;13.20;99.90
44223;DHT22;29895;48.804;9.386;2023-11-19T15:36:12;13.30;99.90
44223;DHT22;29895;48.804;9.386;2023-11-19T15:38:38;13.30;99.90
44223;DHT22;29895;48.804;9.386;2023-11-19T15:41:04;13.30;99.90
44223;DHT22;29895;48.804;9.386;2023-11-19T15:43:30;13.20;99.90
44223;DHT22;29895;48.804;9.386;2023-11-19T15:45:56;13.20;99.90
44223;DHT22;29895;48.804;9.386;2023-11-19T15:48:22;13.10;99.90
44223;DHT22;29895;48.804;9.386;2023-11-19T15:50:47;13.10;99.90
44223;DHT22;29895;48.804;9.386;2023-11-19T15:53:13;13.00;99.90